Time;durP1;ratioP1;P1;durP2;ratioP2;P2;SDS_P1;SDS_P2;PMS_P1;PMS_P2;Temp;Humidity;BMP_temperature;BMP_pressure;BME280_temperature;BME280_humidity;BME280_pressure;Samples;Min_cycle;Max_cycle;Signal;HPM_P1;HPM_P2
2022/09/07 00:01:51;;;;;;;8.70;8.50;;;18.70;99.90;;;;;;5106650;28;20263;-79
2022/09/07 00:04:22;;;;;;;8.68;8.48;;;18.70;99.90;;;;;;5106579;28;20264;-79
2022/09/07 00:06:50;;;;;;;8.80;8.60;;;18.70;99.90;;;;;;5106834;28;20237;-79
2022/09/07 00:09:20;;;;;;;8.70;8.50;;;18.70;99.90;;;;;;5106489;28;20237;-79
2022/09/07 00:11:49;;;;;;;8.88;8.68;;;18.70;99.90;;;;;;5107111;28;20233;-79
2022/09/07 00:14:21;;;;;;;8.93;8.73;;;18.60;99.90;;;;;;5116308;28;20225;-79
2022/09/07 00:16:49;;;;;;;8.75;8.55;;;18.60;99.90;;;;;;5110447;28;20264;-79
2022/09/07 00:19:17;;;;;;;8.85;8.65;;;18.50;99.90;;;;;;5109516;28;20230;-79
2022/09/07 00:21:47;;;;;;;9.20;8.90;;;18.50;99.90;;;;;;5106985;28;20278;-79
2022/09/07 00:24:16;;;;;;;9.30;9.00;;;18.50;99.90;;;;;;5106828;28;20229;-79
2022/09/07 00:26:47;;;;;;;9.00;8.80;;;18.40;99.90;;;;;;5107002;28;20222;-79
2022/09/07 00:29:15;;;;;;;9.30;9.00;;;18.40;99.90;;;;;;5107013;28;20248;-79
2022/09/07 00:31:47;;;;;;;9.20;8.90;;;18.30;99.90;;;;;;5106601;28;20268;-79
2022/09/07 00:34:15;;;;;;;8.93;8.73;;;18.30;99.90;;;;;;5109255;28;20234;-79
2022/09/07 00:36:45;;;;;;;8.80;8.60;;;18.30;99.90;;;;;;5112378;28;20261;-79
2022/09/07 00:39:13;;;;;;;8.77;8.57;;;18.30;99.90;;;;;;5111627;28;20264;-79
2022/09/07 00:41:44;;;;;;;8.70;8.50;;;18.20;99.90;;;;;;5111451;28;20236;-79
2022/09/07 00:45:00;;;;;;;8.68;8.48;;;18.10;99.90;;;;;;5111984;28;20253;-79
2022/09/07 00:47:45;;;;;;;8.63;8.43;;;18.10;99.90;;;;;;5109982;28;20242;-79
2022/09/07 00:50:23;;;;;;;9.18;8.88;;;18.00;99.90;;;;;;5110233;28;20240;-79
2022/09/07 00:52:58;;;;;;;9.50;9.20;;;18.00;99.90;;;;;;5110096;28;20237;-79
2022/09/07 00:55:32;;;;;;;9.50;9.20;;;17.90;99.90;;;;;;5109889;28;20243;-78
2022/09/07 00:58:00;;;;;;;9.80;9.50;;;17.80;99.90;;;;;;5110632;28;20232;-79
2022/09/07 01:00:29;;;;;;;10.00;9.70;;;17.70;99.90;;;;;;5109054;28;20229;-79
2022/09/07 01:03:10;;;;;;;9.80;9.50;;;17.60;99.90;;;;;;5111628;28;20260;-79
2022/09/07 01:05:45;;;;;;;10.00;9.70;;;17.50;99.90;;;;;;5114036;28;20248;-79
2022/09/07 01:08:15;;;;;;;9.80;9.50;;;17.50;99.90;;;;;;5115452;28;20276;-78
2022/09/07 01:10:45;;;;;;;9.40;9.10;;;17.50;99.90;;;;;;5116501;27;20271;-79
2022/09/07 01:13:14;;;;;;;9.50;9.20;;;17.40;99.90;;;;;;5115423;28;20233;-79
2022/09/07 01:15:55;;;;;;;9.50;9.20;;;17.50;99.90;;;;;;5116906;28;20230;-79
2022/09/07 01:18:36;;;;;;;9.23;8.93;;;17.40;99.90;;;;;;5116129;28;20218;-79
2022/09/07 01:21:26;;;;;;;9.48;9.18;;;17.40;99.90;;;;;;5115341;28;20264;-79
2022/09/07 01:24:48;;;;;;;9.70;9.40;;;17.40;99.90;;;;;;5113330;28;20236;-79
2022/09/07 01:28:14;;;;;;;9.38;9.07;;;17.40;99.90;;;;;;5116321;28;20249;-79
2022/09/07 01:30:49;;;;;;;9.57;9.27;;;17.40;99.90;;;;;;5091132;28;20240;-79
2022/09/07 01:33:34;;;;;;;9.48;9.18;;;17.40;99.90;;;;;;5116145;28;20217;-79
2022/09/07 01:36:16;;;;;;;9.50;9.20;;;17.40;99.90;;;;;;5115731;28;20208;-79
2022/09/07 01:38:52;;;;;;;9.35;9.05;;;17.40;99.90;;;;;;5111269;28;20233;-79
2022/09/07 01:41:32;;;;;;;9.50;9.20;;;17.40;99.90;;;;;;5115752;28;20256;-79
2022/09/07 01:44:09;;;;;;;9.20;8.90;;;17.40;99.90;;;;;;5112999;28;20225;-79
2022/09/07 01:46:49;;;;;;;9.45;9.15;;;17.40;99.90;;;;;;5105923;28;20230;-79
2022/09/07 01:49:25;;;;;;;9.20;8.90;;;17.40;99.90;;;;;;5105920;28;20319;-79
2022/09/07 01:51:57;;;;;;;9.43;9.13;;;17.40;99.90;;;;;;5105489;28;20291;-79
2022/09/07 01:54:32;;;;;;;9.50;9.20;;;17.40;99.90;;;;;;5105434;28;20249;-79
2022/09/07 01:57:14;;;;;;;9.50;9.20;;;17.30;99.90;;;;;;5105318;28;20221;-79
2022/09/07 01:59:49;;;;;;;9.50;9.20;;;17.10;99.90;;;;;;5104198;28;20229;-79
2022/09/07 02:02:21;;;;;;;9.35;9.05;;;17.10;99.90;;;;;;5105285;28;20236;-79
2022/09/07 02:04:58;;;;;;;9.45;9.15;;;17.00;99.90;;;;;;5112415;28;20226;-79
2022/09/07 02:07:31;;;;;;;8.80;8.60;;;17.00;99.90;;;;;;5114243;28;20233;-79
2022/09/07 02:10:05;;;;;;;8.80;8.60;;;17.00;99.90;;;;;;5110066;28;20233;-79
2022/09/07 02:12:38;;;;;;;9.13;8.82;;;17.00;99.90;;;;;;5108041;28;20233;-79
2022/09/07 02:15:13;;;;;;;9.00;8.80;;;17.00;99.90;;;;;;5106472;28;20525;-79
2022/09/07 02:17:45;;;;;;;9.20;8.90;;;17.00;99.90;;;;;;5106337;28;20225;-80
2022/09/07 02:20:20;;;;;;;9.43;9.13;;;17.00;99.90;;;;;;5104736;28;20229;-79
2022/09/07 02:23:00;;;;;;;9.30;9.00;;;17.00;99.90;;;;;;5104090;28;20686;-79
2022/09/07 02:25:37;;;;;;;9.32;9.02;;;17.00;99.90;;;;;;5104584;28;20225;-79
2022/09/07 02:28:16;;;;;;;9.30;9.00;;;17.00;99.90;;;;;;5104820;28;20230;-79
2022/09/07 02:30:47;;;;;;;9.13;8.85;;;16.90;99.90;;;;;;5103650;28;20265;-79
2022/09/07 02:33:15;;;;;;;9.50;9.20;;;17.00;99.90;;;;;;5103919;28;20229;-80
2022/09/07 02:35:43;;;;;;;9.40;9.10;;;16.90;99.90;;;;;;5103809;28;20229;-80
2022/09/07 02:38:15;;;;;;;9.68;9.38;;;17.00;99.90;;;;;;5103832;28;20226;-80
2022/09/07 02:40:44;;;;;;;9.70;9.40;;;17.00;99.90;;;;;;5103926;28;20241;-80
2022/09/07 02:43:13;;;;;;;9.55;9.25;;;17.00;99.90;;;;;;5104480;28;20222;-80
2022/09/07 02:46:09;;;;;;;9.68;9.38;;;17.00;99.90;;;;;;5103675;28;20253;-82
2022/09/07 02:48:51;;;;;;;9.60;9.30;;;17.00;99.90;;;;;;5104557;28;20247;-81
2022/09/07 02:51:29;;;;;;;9.10;8.80;;;17.00;99.90;;;;;;5103852;28;20237;-81
2022/09/07 02:54:27;;;;;;;9.50;9.20;;;16.90;99.90;;;;;;5116166;28;20263;-81
2022/09/07 02:57:08;;;;;;;9.15;8.85;;;16.90;99.90;;;;;;5118590;27;20229;-81
2022/09/07 02:59:48;;;;;;;9.10;8.80;;;16.90;99.90;;;;;;5109152;28;20257;-81
2022/09/07 03:02:26;;;;;;;9.18;8.88;;;16.90;99.90;;;;;;5111071;28;20236;-81
2022/09/07 03:05:04;;;;;;;8.70;8.50;;;16.90;99.90;;;;;;5111013;28;20241;-81
2022/09/07 03:07:45;;;;;;;8.77;8.57;;;16.90;99.90;;;;;;5107192;28;20225;-81
2022/09/07 03:10:23;;;;;;;8.80;8.60;;;16.90;99.90;;;;;;5106311;28;20237;-81
2022/09/07 03:12:52;;;;;;;8.75;8.55;;;17.00;99.90;;;;;;5105360;28;20265;-81
2022/09/07 03:15:29;;;;;;;9.07;8.80;;;17.00;99.90;;;;;;5103899;28;20233;-81
2022/09/07 03:18:03;;;;;;;9.18;8.88;;;17.00;99.90;;;;;;5103988;28;20260;-81
2022/09/07 03:20:38;;;;;;;8.93;8.73;;;17.00;99.90;;;;;;5103852;28;20229;-81
2022/09/07 03:23:06;;;;;;;8.93;8.73;;;17.00;99.90;;;;;;5100786;28;20276;-80
2022/09/07 03:25:34;;;;;;;8.80;8.60;;;17.00;99.90;;;;;;5103485;28;20280;-80
2022/09/07 03:28:03;;;;;;;9.25;8.95;;;16.90;99.90;;;;;;5103455;28;20234;-80
2022/09/07 03:30:33;;;;;;;9.30;9.00;;;16.90;99.90;;;;;;5104559;28;20294;-80
2022/09/07 03:33:20;;;;;;;8.90;8.70;;;16.90;99.90;;;;;;5106968;28;20272;-80
2022/09/07 03:35:58;;;;;;;9.02;8.80;;;16.90;99.90;;;;;;5105891;28;20303;-80
2022/09/07 03:38:28;;;;;;;9.10;8.80;;;16.80;99.90;;;;;;5106551;28;20253;-80
2022/09/07 03:41:00;;;;;;;8.73;8.52;;;16.80;99.90;;;;;;5106116;28;20264;-80
2022/09/07 03:43:28;;;;;;;9.10;8.80;;;16.70;99.90;;;;;;5106930;28;20287;-80
2022/09/07 03:46:01;;;;;;;8.65;8.45;;;16.70;99.90;;;;;;5106117;28;20252;-80
2022/09/07 03:48:32;;;;;;;8.98;8.77;;;16.70;99.90;;;;;;5105966;28;20287;-80
2022/09/07 03:51:04;;;;;;;8.50;8.30;;;16.70;99.90;;;;;;5106297;28;20237;-80
2022/09/07 03:53:33;;;;;;;8.85;8.65;;;16.70;99.90;;;;;;5106230;28;20230;-80
2022/09/07 03:56:04;;;;;;;8.65;8.45;;;16.70;99.90;;;;;;5105896;28;20237;-80
2022/09/07 03:58:36;;;;;;;9.18;8.88;;;16.70;99.90;;;;;;5125257;22;20276;-86
2022/09/07 04:01:10;;;;;;;8.88;8.68;;;16.80;99.90;;;;;;5081903;28;20321;-85
2022/09/07 04:03:53;;;;;;;8.70;8.50;;;16.70;99.90;;;;;;5082232;28;20241;-85
2022/09/07 04:06:26;;;;;;;9.13;8.82;;;16.80;99.90;;;;;;5081284;28;20237;-86
2022/09/07 04:08:59;;;;;;;9.20;8.90;;;16.80;99.90;;;;;;5081569;28;20236;-86
2022/09/07 04:11:36;;;;;;;8.90;8.70;;;16.80;99.90;;;;;;5082094;28;20726;-86
2022/09/07 04:14:07;;;;;;;9.30;9.00;;;16.80;99.90;;;;;;5081964;28;20226;-85
2022/09/07 04:16:44;;;;;;;9.48;9.18;;;16.80;99.90;;;;;;5081493;28;20273;-87
2022/09/07 04:19:14;;;;;;;9.10;8.80;;;16.90;99.90;;;;;;5080907;28;20238;-86
2022/09/07 04:21:50;;;;;;;9.10;8.80;;;16.90;99.90;;;;;;5081612;28;20233;-86
2022/09/07 04:24:21;;;;;;;9.50;9.20;;;16.90;99.90;;;;;;5081086;28;20258;-84
2022/09/07 04:26:51;;;;;;;9.90;9.60;;;17.00;99.90;;;;;;5081345;28;20258;-86
2022/09/07 04:29:21;;;;;;;10.20;9.90;;;17.00;99.90;;;;;;5080927;28;20233;-86
2022/09/07 04:31:51;;;;;;;9.73;9.43;;;17.00;99.90;;;;;;5081147;28;20242;-87
2022/09/07 04:34:35;;;;;;;9.70;9.40;;;17.10;99.90;;;;;;5081501;28;20257;-86
2022/09/07 04:37:09;;;;;;;9.93;9.63;;;17.10;99.90;;;;;;5080807;28;20233;-85
2022/09/07 04:39:40;;;;;;;9.95;9.65;;;17.20;99.90;;;;;;5081169;28;20223;-86
2022/09/07 04:42:16;;;;;;;9.77;9.48;;;17.20;99.90;;;;;;5081055;28;20290;-85
2022/09/07 04:44:45;;;;;;;9.70;9.40;;;17.30;99.90;;;;;;5081154;28;20303;-86
2022/09/07 04:47:16;;;;;;;9.57;9.27;;;17.20;99.90;;;;;;5080733;28;20226;-86
2022/09/07 04:49:51;;;;;;;9.80;9.50;;;17.20;99.90;;;;;;5080719;28;20273;-87
2022/09/07 04:52:30;;;;;;;9.65;9.35;;;17.20;99.90;;;;;;5080733;28;20237;-86
2022/09/07 04:54:58;;;;;;;9.43;9.13;;;17.30;99.90;;;;;;5080738;28;20234;-86
2022/09/07 05:00:18;;;;;;;9.52;9.23;;;17.30;99.90;;;;;;5078672;28;20233;-87
2022/09/07 05:02:55;;;;;;;9.20;8.90;;;17.30;99.90;;;;;;5081054;28;20234;-86
2022/09/07 05:08:20;;;;;;;9.43;9.13;;;17.30;99.90;;;;;;5078956;28;20225;-86
2022/09/07 05:10:59;;;;;;;9.60;9.30;;;17.40;99.90;;;;;;5080557;28;20225;-87
2022/09/07 05:13:35;;;;;;;9.80;9.50;;;17.40;99.90;;;;;;5080904;28;20245;-86
2022/09/07 05:16:24;;;;;;;9.57;9.27;;;17.50;99.90;;;;;;5080478;28;20241;-86
2022/09/07 05:18:53;;;;;;;9.80;9.50;;;17.60;99.90;;;;;;5080794;28;20246;-86
2022/09/07 05:21:29;;;;;;;9.50;9.20;;;17.70;99.90;;;;;;5086872;28;20230;-86
2022/09/07 05:24:01;;;;;;;10.18;9.88;;;17.70;99.90;;;;;;5082176;28;20421;-86
2022/09/07 05:26:31;;;;;;;10.02;9.73;;;17.70;99.90;;;;;;5090277;28;20230;-87
2022/09/07 05:29:08;;;;;;;9.48;9.18;;;17.60;99.90;;;;;;5091938;28;20246;-85
2022/09/07 05:34:32;;;;;;;9.70;9.40;;;17.70;99.90;;;;;;5080636;28;20232;-84
2022/09/07 05:37:12;;;;;;;9.55;9.25;;;17.70;99.90;;;;;;5081692;28;20237;-86
2022/09/07 05:39:43;;;;;;;9.55;9.25;;;17.80;99.90;;;;;;5081013;28;20317;-87
2022/09/07 05:42:11;;;;;;;9.65;9.35;;;17.80;99.90;;;;;;5082124;28;20222;-86
2022/09/07 05:44:50;;;;;;;9.35;9.05;;;17.80;99.90;;;;;;5080651;28;20252;-86
2022/09/07 05:47:23;;;;;;;9.80;9.50;;;17.80;99.90;;;;;;5080826;28;20234;-86
2022/09/07 05:49:56;;;;;;;9.73;9.43;;;17.80;99.90;;;;;;5080129;28;20234;-86
2022/09/07 06:09:00;;;;;;;;;;;;;;;;;;;;;
2022/09/07 06:15:20;;;;;;;8.70;8.50;;;17.90;99.90;;;;;;5023275;28;20234;-89
2022/09/07 06:18:05;;;;;;;8.70;8.50;;;18.00;99.90;;;;;;5037328;28;20259;-88
2022/09/07 06:23:22;;;;;;;8.52;8.32;;;18.10;99.90;;;;;;5044410;28;20222;-84
2022/09/07 06:25:50;;;;;;;8.68;8.48;;;18.20;99.90;;;;;;5082488;28;20222;-80
2022/09/07 06:28:19;;;;;;;8.68;8.48;;;18.30;99.90;;;;;;5081882;28;20258;-82
2022/09/07 06:30:47;;;;;;;8.60;8.40;;;18.40;99.90;;;;;;5091045;28;20237;-82
2022/09/07 06:33:29;;;;;;;8.60;8.40;;;18.50;99.90;;;;;;5095577;28;20238;-85
2022/09/07 06:41:33;;;;;;;9.10;8.80;;;18.80;99.90;;;;;;5081600;28;20229;-86
2022/09/07 06:44:03;;;;;;;9.13;8.82;;;18.80;99.90;;;;;;5081641;28;20312;-84
2022/09/07 06:46:50;;;;;;;9.02;8.73;;;18.90;99.90;;;;;;5080638;28;20237;-87
2022/09/07 06:49:28;;;;;;;8.80;8.60;;;18.90;99.90;;;;;;5076659;28;20294;-86
2022/09/07 06:55:36;;;;;;;9.10;8.80;;;19.10;99.90;;;;;;5081021;28;20229;-85
2022/09/07 07:01:36;;;;;;;9.10;8.80;;;19.40;99.90;;;;;;5064380;28;20317;-86
2022/09/07 07:04:04;;;;;;;9.30;9.00;;;19.50;99.90;;;;;;5065144;28;20823;-83
2022/09/07 07:06:36;;;;;;;9.40;9.10;;;19.60;99.90;;;;;;5067227;28;20227;-84
2022/09/07 07:09:06;;;;;;;9.50;9.20;;;19.70;99.90;;;;;;5069398;28;20241;-84
2022/09/07 07:11:35;;;;;;;9.30;9.00;;;19.80;99.90;;;;;;5072413;28;20241;-86
2022/09/07 07:14:05;;;;;;;9.80;9.50;;;19.90;99.90;;;;;;5065585;28;20314;-85
2022/09/07 07:16:32;;;;;;;9.30;9.00;;;20.00;99.90;;;;;;5063529;28;20253;-85
2022/09/07 07:19:01;;;;;;;9.20;8.90;;;20.10;99.90;;;;;;5064257;28;20234;-83
2022/09/07 07:21:41;;;;;;;9.40;9.10;;;20.10;99.90;;;;;;5063827;28;20227;-88
2022/09/07 07:24:12;;;;;;;9.38;9.07;;;20.20;99.90;;;;;;5063038;28;20230;-88
2022/09/07 07:26:42;;;;;;;9.40;9.10;;;20.30;99.90;;;;;;5063462;28;20318;-84
2022/09/07 07:32:03;;;;;;;9.70;9.40;;;20.60;99.90;;;;;;5079798;28;20230;-83
2022/09/07 07:34:33;;;;;;;9.60;9.30;;;20.60;99.90;;;;;;5084523;28;20230;-83
2022/09/07 07:46:00;;;;;;;;;;;;;;;;;;;;;
2022/09/07 07:48:38;;;;;;;9.48;9.18;;;20.80;99.90;;;;;;4983461;28;20222;-82
2022/09/07 07:51:16;;;;;;;9.52;9.23;;;20.80;99.90;;;;;;5044848;28;20237;-81
2022/09/07 07:53:57;;;;;;;9.40;9.10;;;20.70;99.90;;;;;;5087959;28;20284;-86
2022/09/07 07:56:31;;;;;;;9.50;9.20;;;20.90;99.90;;;;;;5085551;28;20313;-84
2022/09/07 07:59:02;;;;;;;9.70;9.40;;;20.90;99.90;;;;;;5087378;28;20377;-85
2022/09/07 08:01:40;;;;;;;9.75;9.45;;;21.00;99.90;;;;;;5088793;28;20240;-86
2022/09/07 08:04:18;;;;;;;9.90;9.60;;;21.10;99.90;;;;;;5089920;28;20218;-83
2022/09/07 08:06:47;;;;;;;10.30;10.00;;;21.20;99.90;;;;;;5088349;28;20229;-80
2022/09/07 08:09:16;;;;;;;10.05;9.75;;;21.30;99.90;;;;;;5087349;28;20222;-79
2022/09/07 08:11:47;;;;;;;10.40;10.10;;;21.40;99.90;;;;;;5084735;28;20238;-80
2022/09/07 08:14:15;;;;;;;10.45;10.15;;;21.40;99.90;;;;;;5085337;28;20253;-80
2022/09/07 08:16:48;;;;;;;10.30;10.00;;;21.60;99.90;;;;;;5096354;28;20226;-80
2022/09/07 08:19:17;;;;;;;10.23;9.93;;;21.70;99.90;;;;;;5090289;28;20218;-81
2022/09/07 08:21:52;;;;;;;10.30;10.00;;;21.90;99.90;;;;;;5088095;28;20277;-81
2022/09/07 08:24:22;;;;;;;10.45;10.15;;;22.00;99.90;;;;;;5087920;28;20295;-81
2022/09/07 08:26:51;;;;;;;10.30;10.00;;;22.20;99.90;;;;;;5086641;28;20286;-81
2022/09/07 08:29:23;;;;;;;10.45;10.15;;;22.40;99.90;;;;;;5085495;28;20234;-80
2022/09/07 08:34:48;;;;;;;10.35;10.05;;;22.70;99.90;;;;;;5082514;28;20290;-84
2022/09/07 08:40:48;;;;;;;10.55;10.25;;;23.10;99.90;;;;;;5080291;28;20250;-83
2022/09/07 08:43:35;;;;;;;10.35;10.05;;;23.50;99.90;;;;;;5083888;28;20309;-80
2022/09/07 08:46:15;;;;;;;10.35;10.05;;;23.70;99.90;;;;;;5084607;28;20230;-82
2022/09/07 08:52:01;;;;;;;10.35;10.05;;;24.20;99.90;;;;;;5086976;28;20237;-80
2022/09/07 08:54:37;;;;;;;10.52;10.23;;;24.50;99.90;;;;;;5089148;28;20390;-80
2022/09/07 08:57:05;;;;;;;10.85;10.55;;;24.70;99.90;;;;;;5089606;28;20234;-81
2022/09/07 08:59:42;;;;;;;11.00;10.70;;;24.90;99.90;;;;;;5089028;28;20238;-80
2022/09/07 09:02:14;;;;;;;11.10;10.80;;;25.10;99.90;;;;;;5085770;28;20290;-80
2022/09/07 09:04:50;;;;;;;10.88;10.57;;;25.30;99.90;;;;;;5081418;28;20230;-80
2022/09/07 09:10:33;;;;;;;10.55;10.25;;;25.60;99.90;;;;;;5090690;28;20222;-83
2022/09/07 09:13:10;;;;;;;10.70;10.40;;;25.70;99.90;;;;;;5100705;28;20222;-82
2022/09/07 09:18:57;;;;;;;11.10;10.80;;;26.20;99.90;;;;;;5100241;28;20214;-83
2022/09/07 09:21:25;;;;;;;11.00;10.70;;;26.40;99.90;;;;;;5101715;28;20210;-83
2022/09/07 09:24:12;;;;;;;10.95;10.65;;;26.50;99.90;;;;;;5102040;28;20237;-80
2022/09/07 09:26:51;;;;;;;11.20;10.90;;;26.60;99.90;;;;;;5101332;28;20225;-82
2022/09/07 09:29:26;;;;;;;11.13;10.82;;;26.70;99.90;;;;;;5101500;28;20217;-84
2022/09/07 09:32:34;;;;;;;11.20;10.90;;;27.00;99.90;;;;;;5102063;28;20237;-84
2022/09/07 09:35:18;;;;;;;11.38;11.07;;;27.10;99.90;;;;;;5101117;28;20210;-83
2022/09/07 09:37:49;;;;;;;11.30;11.00;;;27.70;99.90;;;;;;5101592;28;20228;-83
2022/09/07 09:40:43;;;;;;;11.40;11.10;;;27.90;99.90;;;;;;5101264;28;20222;-82
2022/09/07 09:43:26;;;;;;;11.38;11.07;;;28.30;99.90;;;;;;5085492;28;20233;-84
2022/09/07 09:46:02;;;;;;;11.32;11.02;;;28.00;99.90;;;;;;5091691;28;20229;-83
2022/09/07 09:48:40;;;;;;;11.48;11.18;;;28.00;99.90;;;;;;5083133;28;20229;-83
2022/09/07 09:51:25;;;;;;;11.43;11.13;;;28.00;99.90;;;;;;5082788;28;20236;-83
2022/09/07 09:54:06;;;;;;;11.50;11.20;;;27.80;99.90;;;;;;5085158;28;20218;-83
2022/09/07 09:57:02;;;;;;;11.38;11.07;;;27.70;99.90;;;;;;5083903;28;20225;-83
2022/09/07 09:59:32;;;;;;;11.30;11.00;;;28.20;99.90;;;;;;5084514;28;20234;-83
2022/09/07 10:02:18;;;;;;;10.93;10.63;;;28.10;99.90;;;;;;5121689;22;20238;-76
2022/09/07 10:04:46;;;;;;;10.88;10.57;;;28.10;99.90;;;;;;5075377;28;20233;-78
2022/09/07 10:07:21;;;;;;;10.93;10.63;;;28.10;99.90;;;;;;5076170;28;20225;-75
2022/09/07 10:09:51;;;;;;;10.68;10.38;;;28.00;99.90;;;;;;5076875;28;20244;-76
2022/09/07 10:12:29;;;;;;;11.07;10.77;;;28.00;99.90;;;;;;5075710;28;20260;-76
2022/09/07 10:14:57;;;;;;;10.88;10.57;;;28.00;99.90;;;;;;5075541;28;20321;-74
2022/09/07 10:17:31;;;;;;;10.60;10.30;;;27.90;99.90;;;;;;5075982;28;20320;-75
2022/09/07 10:20:02;;;;;;;10.88;10.57;;;28.00;99.90;;;;;;5076183;28;20302;-75
2022/09/07 10:22:35;;;;;;;10.60;10.30;;;28.30;99.90;;;;;;5076338;28;20234;-76
2022/09/07 10:25:05;;;;;;;10.90;10.60;;;28.50;99.90;;;;;;5075163;28;20234;-76
2022/09/07 10:27:39;;;;;;;11.00;10.70;;;28.50;99.90;;;;;;5075423;28;20234;-76
2022/09/07 10:30:15;;;;;;;10.80;10.50;;;28.80;99.90;;;;;;5075952;28;20230;-75
2022/09/07 10:32:55;;;;;;;10.95;10.65;;;29.30;99.90;;;;;;5071162;28;20242;-75
2022/09/07 10:35:39;;;;;;;10.60;10.30;;;29.30;99.90;;;;;;5054982;28;20256;-75
2022/09/07 10:38:17;;;;;;;10.80;10.50;;;29.10;99.90;;;;;;5055604;28;20256;-76
2022/09/07 10:40:50;;;;;;;10.85;10.55;;;28.70;99.90;;;;;;5054516;28;20230;-74
2022/09/07 10:43:42;;;;;;;10.90;10.60;;;28.50;99.90;;;;;;5055470;28;20223;-74
2022/09/07 10:46:27;;;;;;;10.73;10.43;;;28.40;99.90;;;;;;5065409;28;20240;-79
2022/09/07 10:49:13;;;;;;;11.20;10.90;;;28.30;99.90;;;;;;5080314;28;20240;-79
2022/09/07 10:51:54;;;;;;;11.30;11.00;;;28.20;99.90;;;;;;5079970;28;20234;-78
2022/09/07 10:54:35;;;;;;;11.60;11.20;;;28.40;99.90;;;;;;5081206;28;20222;-79
2022/09/07 10:57:20;;;;;;;11.02;10.73;;;28.40;99.90;;;;;;5081327;28;20328;-79
2022/09/07 11:00:00;;;;;;;10.90;10.60;;;28.40;99.90;;;;;;5081997;28;20237;-79
2022/09/07 11:02:36;;;;;;;11.10;10.80;;;28.30;99.90;;;;;;5078984;28;20295;-78
2022/09/07 11:05:19;;;;;;;11.07;10.77;;;28.30;99.90;;;;;;5081490;28;20316;-79
2022/09/07 11:08:05;;;;;;;11.20;10.90;;;28.40;99.90;;;;;;5087113;28;20293;-79
2022/09/07 11:10:42;;;;;;;11.32;11.02;;;28.70;99.90;;;;;;5077993;28;20234;-79
2022/09/07 11:13:16;;;;;;;11.30;11.00;;;29.10;99.90;;;;;;5081730;28;20237;-80
2022/09/07 11:15:50;;;;;;;11.35;11.05;;;29.60;99.90;;;;;;5084214;28;20236;-79
2022/09/07 11:18:26;;;;;;;11.70;11.30;;;30.00;99.90;;;;;;5084704;28;20260;-79
2022/09/07 11:20:59;;;;;;;11.48;11.18;;;30.30;99.90;;;;;;5079854;28;20249;-79
2022/09/07 11:23:33;;;;;;;11.57;11.27;;;30.60;99.90;;;;;;5079240;28;20313;-78
2022/09/07 11:26:11;;;;;;;11.20;10.90;;;30.80;99.90;;;;;;5078851;28;20241;-78
2022/09/07 11:28:47;;;;;;;11.40;11.10;;;30.90;99.90;;;;;;5077480;28;20218;-78
2022/09/07 11:31:24;;;;;;;11.30;11.00;;;31.00;99.90;;;;;;5079117;28;20222;-79
2022/09/07 11:33:58;;;;;;;11.07;10.77;;;30.80;99.90;;;;;;5078767;28;20234;-78
2022/09/07 11:36:32;;;;;;;11.20;10.90;;;30.70;99.90;;;;;;5077983;28;20233;-78
2022/09/07 11:39:05;;;;;;;11.10;10.80;;;30.50;99.90;;;;;;5079210;28;21129;-78
2022/09/07 11:41:40;;;;;;;11.25;10.95;;;30.50;99.90;;;;;;5079181;28;20225;-78
2022/09/07 11:44:16;;;;;;;11.32;11.02;;;30.90;99.90;;;;;;5083426;28;20301;-78
2022/09/07 11:46:48;;;;;;;11.40;11.10;;;31.40;99.90;;;;;;5087369;28;20230;-78
2022/09/07 11:49:20;;;;;;;10.85;10.55;;;31.90;99.90;;;;;;5088197;28;20230;-78
2022/09/07 11:51:53;;;;;;;11.07;10.77;;;32.30;99.90;;;;;;5089147;28;20325;-78
2022/09/07 11:54:34;;;;;;;11.23;10.93;;;32.50;99.90;;;;;;5084349;28;20230;-78
2022/09/07 11:57:40;;;;;;;11.30;11.00;;;32.40;99.90;;;;;;5083636;28;20233;-79
2022/09/07 12:00:14;;;;;;;11.20;10.90;;;32.40;99.90;;;;;;5073963;28;20226;-78
2022/09/07 12:03:14;;;;;;;11.23;10.93;;;32.80;99.90;;;;;;5081673;28;20238;-78
2022/09/07 12:06:40;;;;;;;11.27;10.98;;;33.30;99.90;;;;;;5079603;28;20230;-78
2022/09/07 12:09:28;;;;;;;11.50;11.20;;;33.60;99.90;;;;;;5038263;28;20255;-78
2022/09/07 12:12:24;;;;;;;11.68;11.38;;;34.00;99.90;;;;;;5079332;28;20234;-78
2022/09/07 12:15:09;;;;;;;11.40;11.10;;;33.80;99.90;;;;;;5078788;28;20217;-78
2022/09/07 12:17:53;;;;;;;11.75;11.43;;;33.60;99.90;;;;;;5079192;28;20242;-77
2022/09/07 12:20:25;;;;;;;11.73;11.40;;;33.40;99.90;;;;;;5080060;28;20230;-78
2022/09/07 12:23:05;;;;;;;12.00;11.60;;;33.40;99.90;;;;;;5080629;28;20245;-78
2022/09/07 12:25:34;;;;;;;11.20;10.90;;;33.30;99.90;;;;;;5079750;28;20281;-78
2022/09/07 12:28:02;;;;;;;11.40;11.10;;;32.90;99.90;;;;;;5078502;28;20234;-77
2022/09/07 12:30:59;;;;;;;11.38;11.07;;;32.60;99.90;;;;;;5078776;28;20242;-78
2022/09/07 12:33:39;;;;;;;11.25;10.95;;;32.40;99.90;;;;;;5079636;28;20241;-80
2022/09/07 12:36:42;;;;;;;11.52;11.23;;;32.30;99.90;;;;;;5082696;28;20279;-79
2022/09/07 12:39:24;;;;;;;11.35;11.05;;;32.40;99.90;;;;;;5070131;28;20233;-78
2022/09/07 12:41:54;;;;;;;11.77;11.38;;;32.60;99.90;;;;;;5080854;28;20233;-78
2022/09/07 12:44:24;;;;;;;12.10;11.70;;;32.80;99.90;;;;;;5080094;28;20240;-78
2022/09/07 12:46:58;;;;;;;11.90;11.50;;;32.90;99.90;;;;;;5082815;28;20230;-77
2022/09/07 12:50:10;;;;;;;11.98;11.57;;;32.70;99.90;;;;;;5086076;28;20260;-78
2022/09/07 12:52:47;;;;;;;11.90;11.50;;;32.30;99.90;;;;;;5078232;28;20258;-77
2022/09/07 12:56:08;;;;;;;11.77;11.38;;;31.70;99.90;;;;;;5077704;28;20222;-78
2022/09/07 12:58:44;;;;;;;11.68;11.27;;;31.60;99.90;;;;;;5020887;28;20226;-77
2022/09/07 13:01:31;;;;;;;11.77;11.38;;;32.00;99.90;;;;;;5080258;28;20242;-78
2022/09/07 13:04:51;;;;;;;11.93;11.52;;;32.60;99.90;;;;;;5080472;28;20317;-78
2022/09/07 13:07:47;;;;;;;12.18;11.77;;;32.70;99.90;;;;;;5072728;28;20238;-78
2022/09/07 13:10:29;;;;;;;12.10;11.70;;;33.30;99.90;;;;;;5082518;28;20230;-78
2022/09/07 13:13:03;;;;;;;12.02;11.63;;;33.70;99.90;;;;;;5081287;28;20351;-79
2022/09/07 13:15:44;;;;;;;11.85;11.45;;;33.80;99.90;;;;;;5081045;28;20252;-78
2022/09/07 13:18:41;;;;;;;12.20;11.80;;;33.60;99.90;;;;;;5083473;28;20312;-78
2022/09/07 13:21:38;;;;;;;11.95;11.55;;;33.50;99.90;;;;;;5084664;28;20226;-79
2022/09/07 13:24:38;;;;;;;12.13;11.73;;;33.40;99.90;;;;;;5084013;28;20310;-78
2022/09/07 13:27:27;;;;;;;12.25;11.85;;;32.80;99.90;;;;;;5086642;28;20238;-79
2022/09/07 13:29:58;;;;;;;12.25;11.85;;;32.00;99.90;;;;;;5081059;28;20234;-76
2022/09/07 13:32:30;;;;;;;11.85;11.45;;;31.90;99.90;;;;;;5081521;28;20222;-78
2022/09/07 13:35:15;;;;;;;12.00;11.60;;;31.50;99.90;;;;;;5079993;28;20270;-78
2022/09/07 13:37:51;;;;;;;11.75;11.35;;;31.40;99.90;;;;;;5079948;28;20234;-77
2022/09/07 13:40:25;;;;;;;11.82;11.43;;;31.40;99.90;;;;;;5079872;28;20225;-79
2022/09/07 13:42:55;;;;;;;11.98;11.57;;;31.50;99.90;;;;;;5081818;28;20258;-78
2022/09/07 13:45:33;;;;;;;12.07;11.68;;;31.80;99.90;;;;;;5080923;28;20230;-79
2022/09/07 13:48:10;;;;;;;12.05;11.65;;;32.30;99.90;;;;;;5084510;28;20229;-79
2022/09/07 13:50:51;;;;;;;12.15;11.75;;;32.70;99.90;;;;;;5085842;28;20226;-79
2022/09/07 13:53:43;;;;;;;12.05;11.65;;;33.00;99.90;;;;;;5085222;28;20230;-78
2022/09/07 13:56:32;;;;;;;12.07;11.68;;;33.40;99.90;;;;;;5081614;28;20222;-78
2022/09/07 13:59:11;;;;;;;11.88;11.48;;;33.60;99.90;;;;;;5082661;28;20230;-80
2022/09/07 14:01:46;;;;;;;12.07;11.68;;;33.70;99.90;;;;;;5082364;28;20356;-79
2022/09/07 14:04:23;;;;;;;11.98;11.57;;;33.60;99.90;;;;;;5082804;28;20233;-78
2022/09/07 14:06:51;;;;;;;12.10;11.70;;;33.80;99.90;;;;;;5081938;28;20224;-78
2022/09/07 14:09:21;;;;;;;12.00;11.60;;;33.80;99.90;;;;;;5078784;28;20238;-77
2022/09/07 14:11:53;;;;;;;12.20;11.80;;;34.00;99.90;;;;;;5076358;28;20222;-76
2022/09/07 14:14:22;;;;;;;12.10;11.70;;;34.20;99.90;;;;;;5075568;28;20323;-77
2022/09/07 14:16:55;;;;;;;12.30;11.90;;;34.40;99.90;;;;;;5076968;28;20240;-76
2022/09/07 14:19:25;;;;;;;12.25;11.85;;;34.40;99.90;;;;;;5076787;28;20229;-78
2022/09/07 14:22:01;;;;;;;12.13;11.73;;;34.20;99.90;;;;;;5076517;28;20325;-77
2022/09/07 14:24:33;;;;;;;12.32;11.93;;;34.30;99.90;;;;;;5076198;28;20316;-77
2022/09/07 14:27:04;;;;;;;11.80;11.50;;;34.40;99.90;;;;;;5076328;28;20240;-77
2022/09/07 14:29:33;;;;;;;11.40;11.10;;;34.00;99.90;;;;;;5076540;28;20226;-77
2022/09/07 14:32:03;;;;;;;11.32;11.02;;;34.00;99.90;;;;;;5076286;28;20244;-77
2022/09/07 14:34:35;;;;;;;11.25;10.95;;;34.30;99.90;;;;;;5075671;28;20325;-78
2022/09/07 14:37:07;;;;;;;11.32;11.02;;;34.60;99.90;;;;;;5076433;28;20277;-77
2022/09/07 14:39:39;;;;;;;11.13;10.82;;;35.00;99.90;;;;;;5076941;28;20313;-77
2022/09/07 14:42:11;;;;;;;11.77;11.38;;;35.30;99.90;;;;;;5076183;28;20320;-77